Susquehanna — WDD9976 — position and weather

sailwx.info

Track history (hours):
 
Tides and Currents Weather Stations Pressure Air Temp Water Temp Dewpoint Dewpoint Depression Visibility Wind Speed Wind Dir Waves Ship Positions

Susquehanna

Owner: Vane Line Bunkering, Inc., Baltimore, MD. More information available from US FCC via Universal Licensing System and Coast Guard Vessel Documentation Center.

Last reported at 2015-Feb-27 06:32 UTC. Time now 2015-Mar-03 22:38 UTC.
Position N 31°58' W 080°43'.

Length 28 m; draft 4.2 m.

Type: Tug. MMSI: 367318750.

Date/timePositionNaut miles runAvg speedWind from/ knotsBaromVisibWave heightAir tempDewpointWater temp
2015-Feb-27 06:32N 31°58' W 080°43'7 5.9
2015-Feb-27 05:24N 32°02' W 080°50'6 7.4
2015-Feb-27 04:34N 32°04' W 080°57'7 7.0
2015-Feb-27 03:33N 32°05' W 081°05'2 1.5
2015-Feb-27 02:31N 32°06' W 081°06'0 0.0
2015-Feb-27 01:32N 32°06' W 081°07'0 0.0
2015-Feb-27 00:32N 32°06' W 081°07'0 0.0
2015-Feb-26 23:33N 32°06' W 081°07'0 0.0
2015-Feb-26 22:31N 32°06' W 081°07'0 0.0
2015-Feb-26 21:32N 32°06' W 081°07'0 0.0
2015-Feb-26 20:32N 32°06' W 081°07'0 0.0
2015-Feb-26 19:33N 32°06' W 081°07'0 0.0
2015-Feb-26 18:31N 32°06' W 081°07'0 0.0
2015-Feb-26 17:32N 32°06' W 081°07'2 1.9
2015-Feb-26 16:33N 32°05' W 081°05'6 6.2
2015-Feb-26 15:34N 32°04' W 080°57'8 7.8
2015-Feb-26 14:33N 32°02' W 080°49'5 4.5
2015-Feb-26 13:33N 31°58' W 080°45'299 7.9
2015-Feb-24 23:33N 27°02' W 080°01'8 7.7
2015-Feb-24 22:33N 26°55' W 079°59'9 8.6
2015-Feb-24 21:29N 26°46' W 079°58'  
2015-Feb-18 07:12N 29°21' W 094°46'0 0.0
2015-Feb-17 11:08N 29°21' W 094°46'  
Track history (hours):
 
Tides and Currents Weather Stations Pressure Air Temp Water Temp Dewpoint Dewpoint Depression Visibility Wind Speed Wind Dir Waves Ship Positions

Susquehanna

Owner: Vane Line Bunkering, Inc., Baltimore, MD. More information available from US FCC via Universal Licensing System and Coast Guard Vessel Documentation Center.

Last reported at 2015-Feb-27 06:32 UTC. Time now 2015-Mar-03 22:38 UTC.
Position N 31°58' W 080°43'.

Length 28 m; draft 4.2 m.

Type: Tug. MMSI: 367318750.

Date/timePositionNaut miles runAvg speedWind from/ knotsBaromVisibWave heightAir tempDewpointWater temp
2015-Feb-27 06:32N 31°58' W 080°43'7 5.9
2015-Feb-27 05:24N 32°02' W 080°50'6 7.4
2015-Feb-27 04:34N 32°04' W 080°57'7 7.0
2015-Feb-27 03:33N 32°05' W 081°05'2 1.5
2015-Feb-27 02:31N 32°06' W 081°06'0 0.0
2015-Feb-27 01:32N 32°06' W 081°07'0 0.0
2015-Feb-27 00:32N 32°06' W 081°07'0 0.0
2015-Feb-26 23:33N 32°06' W 081°07'0 0.0
2015-Feb-26 22:31N 32°06' W 081°07'0 0.0
2015-Feb-26 21:32N 32°06' W 081°07'0 0.0
2015-Feb-26 20:32N 32°06' W 081°07'0 0.0
2015-Feb-26 19:33N 32°06' W 081°07'0 0.0
2015-Feb-26 18:31N 32°06' W 081°07'0 0.0
2015-Feb-26 17:32N 32°06' W 081°07'2 1.9
2015-Feb-26 16:33N 32°05' W 081°05'6 6.2
2015-Feb-26 15:34N 32°04' W 080°57'8 7.8
2015-Feb-26 14:33N 32°02' W 080°49'5 4.5
2015-Feb-26 13:33N 31°58' W 080°45'299 7.9
2015-Feb-24 23:33N 27°02' W 080°01'8 7.7
2015-Feb-24 22:33N 26°55' W 079°59'9 8.6
2015-Feb-24 21:29N 26°46' W 079°58'  
2015-Feb-18 07:12N 29°21' W 094°46'0 0.0
2015-Feb-17 11:08N 29°21' W 094°46'  

Dump ship's entire track history